Time;durP1;ratioP1;P1;durP2;ratioP2;P2;SDS_P1;SDS_P2;PMS_P1;PMS_P2;Temp;Humidity;BMP_temperature;BMP_pressure;BME280_temperature;BME280_humidity;BME280_pressure;Samples;Min_cycle;Max_cycle;Signal;HPM_P1;HPM_P2
2023/01/09 00:01:25;;;;;;;7.00;4.63;;;;;5.50;92325.00;;;;7396763;19;20141;-78
2023/01/09 00:04:06;;;;;;;4.63;3.90;;;;;5.40;92331.00;;;;7396595;19;20163;-79
2023/01/09 00:06:42;;;;;;;5.03;3.93;;;;;5.30;92319.00;;;;7401712;19;20129;-79
2023/01/09 00:09:15;;;;;;;5.00;4.20;;;;;5.40;92313.00;;;;7402640;19;20127;-78
2023/01/09 00:11:53;;;;;;;6.00;4.47;;;;;5.40;92316.00;;;;7403057;19;20164;-79
2023/01/09 00:14:23;;;;;;;6.73;5.03;;;;;5.30;92318.00;;;;7403646;19;20671;-80
2023/01/09 00:16:59;;;;;;;5.77;4.27;;;;;5.30;92314.00;;;;7405441;19;20208;-79
2023/01/09 00:19:32;;;;;;;6.07;3.90;;;;;5.40;92319.00;;;;7402238;19;20149;-79
2023/01/09 00:22:08;;;;;;;5.97;4.40;;;;;5.50;92313.00;;;;7399085;19;20215;-79
2023/01/09 00:24:42;;;;;;;5.80;4.33;;;;;5.40;92310.00;;;;7403242;19;20148;-79
2023/01/09 00:27:13;;;;;;;5.60;4.17;;;;;5.30;92302.00;;;;7402962;19;20148;-79
2023/01/09 00:29:48;;;;;;;5.77;4.60;;;;;5.40;92309.00;;;;7403092;19;20166;-78
2023/01/09 00:32:23;;;;;;;6.33;4.50;;;;;5.40;92309.00;;;;7403666;19;20532;-79
2023/01/09 00:34:59;;;;;;;8.47;4.47;;;;;5.50;92312.00;;;;7404651;19;20137;-78
2023/01/09 00:37:33;;;;;;;5.97;4.80;;;;;5.40;92311.00;;;;7401934;19;20160;-79
2023/01/09 00:40:07;;;;;;;5.77;4.07;;;;;5.40;92300.00;;;;7391576;19;20156;-78
2023/01/09 00:42:45;;;;;;;7.67;4.50;;;;;5.30;92296.00;;;;7401980;19;20133;-78
2023/01/09 00:45:27;;;;;;;7.60;4.03;;;;;5.50;92311.00;;;;7408515;19;20141;-78
2023/01/09 00:48:03;;;;;;;5.27;4.30;;;;;5.40;92303.00;;;;7407957;19;20246;-78
2023/01/09 00:50:39;;;;;;;7.60;5.20;;;;;5.40;92298.00;;;;7404605;19;20148;-78
2023/01/09 00:53:12;;;;;;;7.13;4.63;;;;;5.40;92304.00;;;;7401026;19;20668;-78
2023/01/09 00:55:46;;;;;;;5.93;3.63;;;;;5.40;92303.00;;;;7403172;19;20616;-78
2023/01/09 00:58:13;;;;;;;5.93;4.13;;;;;5.40;92292.00;;;;7405354;19;20136;-78
2023/01/09 01:00:48;;;;;;;6.33;4.47;;;;;5.30;92294.00;;;;7407757;19;20599;-77
2023/01/09 01:03:16;;;;;;;5.43;4.00;;;;;5.30;92287.00;;;;7403821;19;20141;-77
2023/01/09 01:08:45;;;;;;;4.10;3.07;;;;;5.20;92291.00;;;;7403817;19;20619;-78
2023/01/09 01:11:20;;;;;;;3.03;2.20;;;;;5.20;92284.00;;;;7403064;19;20502;-77
2023/01/09 01:13:55;;;;;;;2.40;1.80;;;;;5.10;92280.00;;;;7402936;19;20136;-78
2023/01/09 01:16:25;;;;;;;1.97;1.40;;;;;5.10;92276.00;;;;7403794;19;20128;-78
2023/01/09 01:19:01;;;;;;;1.97;1.40;;;;;5.10;92281.00;;;;7399691;19;20583;-78
2023/01/09 01:21:29;;;;;;;1.20;1.00;;;;;5.10;92272.00;;;;7401839;19;20135;-78
2023/01/09 01:24:03;;;;;;;1.00;0.73;;;;;5.10;92280.00;;;;7401403;19;20157;-78
2023/01/09 01:26:33;;;;;;;1.80;0.70;;;;;5.00;92284.00;;;;7402332;19;20490;-78
2023/01/09 01:29:06;;;;;;;0.50;0.50;;;;;5.00;92283.00;;;;7402110;19;20149;-78
2023/01/09 01:31:37;;;;;;;0.83;0.50;;;;;5.00;92280.00;;;;7402372;19;20197;-78
2023/01/09 01:34:13;;;;;;;1.73;0.40;;;;;5.00;92286.00;;;;7403648;19;20515;-78
2023/01/09 01:36:41;;;;;;;0.30;0.30;;;;;5.00;92296.00;;;;7402741;19;20157;-79
2023/01/09 01:39:15;;;;;;;0.67;0.47;;;;;5.00;92287.00;;;;7401182;19;20157;-79
2023/01/09 01:41:43;;;;;;;0.20;0.20;;;;;5.00;92292.00;;;;7402248;19;20141;-79
2023/01/09 01:45:00;;;;;;;0.43;0.30;;;;;5.00;92299.00;;;;7402618;19;20149;-78
2023/01/09 01:48:02;;;;;;;0.10;0.10;;;;;5.00;92304.00;;;;7402291;19;20608;-79
2023/01/09 01:50:47;;;;;;;0.30;0.20;;;;;5.00;92306.00;;;;7398748;19;20185;-78
2023/01/09 01:53:42;;;;;;;0.10;0.10;;;;;5.00;92313.00;;;;7399181;19;20178;-80
2023/01/09 01:56:26;;;;;;;7.20;0.50;;;;;5.10;92320.00;;;;7401796;19;20117;-78
2023/01/09 01:59:08;;;;;;;0.33;0.20;;;;;5.00;92315.00;;;;7397965;19;20140;-78
2023/01/09 02:01:47;;;;;;;4.70;0.20;;;;;5.00;92313.00;;;;7399632;19;20204;-78
2023/01/09 02:04:21;;;;;;;0.83;0.30;;;;;5.00;92302.00;;;;7398306;19;20639;-78
2023/01/09 02:07:06;;;;;;;0.13;0.13;;;;;5.10;92288.00;;;;7401387;19;20597;-78
2023/01/09 02:09:34;;;;;;;0.97;0.23;;;;;5.00;92278.00;;;;7400385;19;20478;-77
2023/01/09 02:12:34;;;;;;;0.10;0.10;;;;;5.00;92280.00;;;;7400706;19;20136;-79
2023/01/09 02:15:25;;;;;;;0.33;0.30;;;;;5.00;92283.00;;;;7399974;19;20162;-78
2023/01/09 02:18:25;;;;;;;0.70;0.20;;;;;4.90;92278.00;;;;7399273;19;20204;-78
2023/01/09 02:21:16;;;;;;;0.27;0.27;;;;;5.00;92279.00;;;;7400355;19;20137;-78
2023/01/09 02:23:50;;;;;;;1.13;0.40;;;;;5.00;92280.00;;;;7400536;19;20625;-78
2023/01/09 02:26:23;;;;;;;0.33;0.30;;;;;4.90;92288.00;;;;7404162;19;20133;-78
2023/01/09 02:29:34;;;;;;;0.93;0.40;;;;;4.80;92281.00;;;;7400949;19;20150;-78
2023/01/09 02:32:18;;;;;;;0.87;0.40;;;;;4.90;92290.00;;;;7401769;19;20145;-79
2023/01/09 02:35:01;;;;;;;0.30;0.30;;;;;4.90;92291.00;;;;7400415;19;20599;-78
2023/01/09 02:38:02;;;;;;;1.80;0.20;;;;;4.80;92295.00;;;;7399501;19;20134;-78
2023/01/09 02:41:00;;;;;;;0.10;0.10;;;;;4.70;92303.00;;;;7398608;19;20611;-79
2023/01/09 02:43:33;;;;;;;0.20;0.20;;;;;4.90;92308.00;;;;7399329;19;20139;-78
2023/01/09 02:46:01;;;;;;;0.20;0.20;;;;;4.80;92302.00;;;;7399980;19;20139;-79
2023/01/09 02:48:34;;;;;;;3.40;0.30;;;;;4.80;92294.00;;;;7399978;19;20607;-78
2023/01/09 02:51:37;;;;;;;0.30;0.17;;;;;4.80;92303.00;;;;7401129;19;20137;-78
2023/01/09 02:54:26;;;;;;;0.10;0.10;;;;;4.80;92314.00;;;;7398861;19;20144;-78
2023/01/09 02:57:27;;;;;;;0.20;0.20;;;;;4.90;92303.00;;;;7399845;19;20821;-79
2023/01/09 03:00:10;;;;;;;0.10;0.10;;;;;4.80;92311.00;;;;7397725;19;20136;-78
2023/01/09 03:03:20;;;;;;;3.70;0.30;;;;;4.70;92307.00;;;;7399024;19;20137;-79
2023/01/09 03:06:15;;;;;;;0.10;0.10;;;;;4.60;92319.00;;;;7395032;19;20172;-79
2023/01/09 03:08:51;;;;;;;0.10;0.03;;;;;4.60;92333.00;;;;7398488;19;20125;-78
2023/01/09 03:11:32;;;;;;;0.20;0.20;;;;;4.90;92334.00;;;;7397500;19;20472;-78
2023/01/09 03:14:07;;;;;;;1.50;0.20;;;;;4.80;92341.00;;;;7398839;19;20618;-79
2023/01/09 03:16:44;;;;;;;0.17;0.17;;;;;4.70;92347.00;;;;7394353;19;20149;-78
2023/01/09 03:19:19;;;;;;;2.63;0.30;;;;;4.70;92356.00;;;;7397491;19;20514;-78
2023/01/09 03:21:55;;;;;;;0.20;0.20;;;;;4.70;92364.00;;;;7397352;19;20144;-79
2023/01/09 03:24:22;;;;;;;0.20;0.20;;;;;4.60;92384.00;;;;7398064;19;20132;-78
2023/01/09 03:26:56;;;;;;;0.20;0.20;;;;;4.50;92391.00;;;;7397243;19;20133;-79
2023/01/09 03:29:23;;;;;;;0.20;0.10;;;;;4.20;92408.00;;;;7396441;19;20484;-78
2023/01/09 03:32:03;;;;;;;0.10;0.03;;;;;4.00;92421.00;;;;7399373;19;20129;-80
2023/01/09 03:34:30;;;;;;;0.27;0.20;;;;;4.00;92436.00;;;;7397853;19;20608;-78
2023/01/09 03:37:05;;;;;;;0.93;0.20;;;;;3.70;92440.00;;;;7397666;19;20627;-79
2023/01/09 03:39:39;;;;;;;0.20;0.17;;;;;3.50;92417.00;;;;7397083;19;20189;-79
2023/01/09 03:42:13;;;;;;;0.20;0.20;;;;;3.30;92427.00;;;;7405689;19;20131;-80
2023/01/09 03:44:40;;;;;;;0.03;0.00;;;;;3.30;92424.00;;;;7404924;19;20473;-79
2023/01/09 03:47:14;;;;;;;0.93;0.00;;;;;3.40;92419.00;;;;7405864;19;20146;-79
2023/01/09 03:49:41;;;;;;;1.90;0.10;;;;;3.10;92433.00;;;;7405356;19;20642;-79
2023/01/09 03:52:18;;;;;;;0.00;0.00;;;;;2.80;92445.00;;;;7404574;19;20128;-78
2023/01/09 03:54:45;;;;;;;0.23;0.10;;;;;2.80;92446.00;;;;7401128;19;20236;-79
2023/01/09 03:57:23;;;;;;;0.10;0.10;;;;;2.80;92443.00;;;;7402974;19;20152;-78
2023/01/09 03:59:57;;;;;;;0.10;0.10;;;;;2.80;92446.00;;;;7400845;19;20601;-79
2023/01/09 04:02:25;;;;;;;0.10;0.10;;;;;2.90;92444.00;;;;7404766;19;20482;-77
2023/01/09 04:05:06;;;;;;;0.20;0.20;;;;;2.80;92449.00;;;;7401493;19;20173;-77
2023/01/09 04:07:48;;;;;;;0.13;0.13;;;;;2.90;92463.00;;;;7405388;19;20133;-77
2023/01/09 04:10:23;;;;;;;0.20;0.20;;;;;2.90;92478.00;;;;7404680;19;20192;-80
2023/01/09 04:12:57;;;;;;;2.07;0.40;;;;;3.00;92494.00;;;;7401548;19;20184;-79
2023/01/09 04:15:25;;;;;;;0.73;0.20;;;;;2.90;92490.00;;;;7402056;19;20607;-81
2023/01/09 04:18:03;;;;;;;0.60;0.40;;;;;2.90;92501.00;;;;7400848;19;20514;-79
2023/01/09 04:20:31;;;;;;;0.87;0.50;;;;;2.90;92513.00;;;;7404320;19;20133;-79
2023/01/09 04:23:06;;;;;;;2.03;0.50;;;;;2.80;92517.00;;;;7403645;19;20124;-78
2023/01/09 04:25:34;;;;;;;0.83;0.37;;;;;2.80;92519.00;;;;7402677;19;20216;-78
2023/01/09 04:28:07;;;;;;;0.70;0.50;;;;;2.90;92524.00;;;;7402746;19;20151;-77
2023/01/09 04:30:35;;;;;;;3.33;0.77;;;;;3.00;92526.00;;;;7404690;19;20153;-78
2023/01/09 04:33:11;;;;;;;1.00;0.40;;;;;3.00;92523.00;;;;7402442;19;20151;-78
2023/01/09 04:35:38;;;;;;;0.30;0.30;;;;;2.90;92527.00;;;;7402156;19;20142;-78
2023/01/09 04:38:14;;;;;;;0.80;0.53;;;;;2.90;92536.00;;;;7401630;19;20148;-79
2023/01/09 04:40:48;;;;;;;1.80;0.57;;;;;2.90;92540.00;;;;7402652;19;20537;-78
2023/01/09 04:43:21;;;;;;;0.90;0.53;;;;;2.90;92533.00;;;;7399074;19;20828;-78
2023/01/09 04:45:55;;;;;;;1.50;0.60;;;;;2.80;92536.00;;;;7404143;19;20588;-78
2023/01/09 04:48:30;;;;;;;1.20;0.80;;;;;2.80;92547.00;;;;7402257;19;20125;-78
2023/01/09 04:50:57;;;;;;;2.30;0.83;;;;;2.90;92534.00;;;;7401334;19;20474;-78
2023/01/09 04:53:32;;;;;;;3.63;0.83;;;;;2.90;92534.00;;;;7402865;19;20168;-78
2023/01/09 04:56:02;;;;;;;2.53;1.23;;;;;2.90;92547.00;;;;7403355;19;20149;-79
2023/01/09 04:58:36;;;;;;;3.33;1.20;;;;;2.90;92544.00;;;;7401331;19;20156;-79
2023/01/09 05:01:03;;;;;;;2.67;0.80;;;;;2.80;92546.00;;;;7399815;19;20596;-79
2023/01/09 05:03:38;;;;;;;6.93;1.00;;;;;2.80;92540.00;;;;7400938;19;20156;-78
2023/01/09 05:06:11;;;;;;;2.10;0.90;;;;;2.90;92542.00;;;;7400546;19;20152;-79
2023/01/09 05:08:45;;;;;;;1.00;0.90;;;;;2.90;92558.00;;;;7402722;19;20144;-79
2023/01/09 05:11:13;;;;;;;1.97;0.80;;;;;2.70;92571.00;;;;7401480;19;20180;-81
2023/01/09 05:13:49;;;;;;;5.03;0.80;;;;;2.80;92560.00;;;;7402552;19;20141;-80
2023/01/09 05:16:23;;;;;;;6.27;0.70;;;;;2.60;92545.00;;;;7400200;19;20482;-81
2023/01/09 05:18:55;;;;;;;4.00;1.07;;;;;2.70;92555.00;;;;7396982;19;20125;-81
2023/01/09 05:21:29;;;;;;;4.03;1.20;;;;;2.60;92558.00;;;;7397995;19;20137;-79
2023/01/09 05:23:56;;;;;;;2.60;0.67;;;;;2.50;92570.00;;;;7399759;19;20173;-80
2023/01/09 05:26:24;;;;;;;4.90;0.90;;;;;2.40;92564.00;;;;7399598;19;20161;-81
2023/01/09 05:28:58;;;;;;;3.80;1.03;;;;;2.30;92557.00;;;;7401285;19;20132;-79
2023/01/09 05:31:27;;;;;;;3.67;1.10;;;;;2.30;92570.00;;;;7401041;19;20136;-79
2023/01/09 05:34:01;;;;;;;2.03;0.80;;;;;2.20;92594.00;;;;7399900;19;20152;-79
2023/01/09 05:36:32;;;;;;;3.80;0.80;;;;;2.10;92596.00;;;;7400667;19;20129;-79
2023/01/09 05:39:07;;;;;;;3.80;0.80;;;;;2.10;92599.00;;;;7397686;19;20185;-79
2023/01/09 05:41:41;;;;;;;2.43;0.80;;;;;2.00;92608.00;;;;7397976;19;20148;-81
2023/01/09 05:44:15;;;;;;;2.93;0.63;;;;;2.10;92613.00;;;;7399010;19;20217;-78
2023/01/09 05:46:42;;;;;;;6.63;0.97;;;;;2.10;92611.00;;;;7398801;19;20152;-78
2023/01/09 05:49:16;;;;;;;4.33;0.87;;;;;2.10;92609.00;;;;7398248;19;20163;-78
2023/01/09 05:51:43;;;;;;;2.17;0.77;;;;;2.10;92616.00;;;;7395278;19;20580;-78
2023/01/09 05:54:17;;;;;;;3.17;0.90;;;;;2.00;92623.00;;;;7394601;19;20160;-78
2023/01/09 05:56:44;;;;;;;2.97;0.73;;;;;2.00;92624.00;;;;7397305;19;20125;-78
2023/01/09 05:59:19;;;;;;;8.27;0.80;;;;;1.90;92627.00;;;;7394404;19;20137;-78
2023/01/09 06:01:47;;;;;;;2.03;0.70;;;;;2.10;92633.00;;;;7397445;19;20584;-79
2023/01/09 06:04:28;;;;;;;3.93;0.80;;;;;2.20;92641.00;;;;7396832;19;20209;-79
2023/01/09 06:07:03;;;;;;;2.67;0.83;;;;;2.30;92647.00;;;;7396585;19;20147;-79
2023/01/09 06:09:38;;;;;;;3.37;0.80;;;;;2.50;92635.00;;;;7397862;19;20155;-79
2023/01/09 06:12:14;;;;;;;5.03;1.13;;;;;2.50;92631.00;;;;7401278;19;20141;-79
2023/01/09 06:14:41;;;;;;;3.13;0.60;;;;;2.50;92639.00;;;;7402142;19;20150;-79
2023/01/09 06:17:15;;;;;;;10.53;0.83;;;;;2.60;92630.00;;;;7399720;19;20125;-79
2023/01/09 06:19:44;;;;;;;6.10;1.10;;;;;2.70;92634.00;;;;7399073;19;20137;-79
2023/01/09 06:22:18;;;;;;;2.20;0.90;;;;;2.80;92635.00;;;;7401421;19;20593;-79
2023/01/09 06:24:56;;;;;;;5.43;0.93;;;;;2.80;92638.00;;;;7396469;19;20129;-78
2023/01/09 06:27:23;;;;;;;4.27;1.10;;;;;2.70;92648.00;;;;7402626;19;20129;-79
2023/01/09 06:29:57;;;;;;;5.07;1.10;;;;;2.80;92634.00;;;;7402133;19;20157;-78
2023/01/09 06:32:25;;;;;;;4.00;1.13;;;;;2.70;92628.00;;;;7403318;19;20133;-79
2023/01/09 06:34:58;;;;;;;3.93;1.03;;;;;2.70;92625.00;;;;7400562;19;20124;-79
2023/01/09 06:37:26;;;;;;;5.80;1.23;;;;;2.70;92639.00;;;;7401598;19;20137;-79
2023/01/09 06:40:02;;;;;;;4.50;1.00;;;;;2.70;92629.00;;;;7397724;19;20140;-79
2023/01/09 06:42:29;;;;;;;8.33;1.30;;;;;2.80;92621.00;;;;7400079;19;20255;-79
2023/01/09 06:45:04;;;;;;;4.93;1.13;;;;;2.70;92645.00;;;;7399007;19;20184;-78
2023/01/09 06:47:32;;;;;;;5.07;1.57;;;;;2.70;92633.00;;;;7401363;19;20137;-80
2023/01/09 06:50:08;;;;;;;4.23;0.70;;;;;2.70;92640.00;;;;7400273;19;20188;-80
2023/01/09 06:52:36;;;;;;;5.27;1.13;;;;;2.80;92643.00;;;;7396736;19;20152;-78
2023/01/09 06:55:12;;;;;;;5.57;1.20;;;;;2.70;92645.00;;;;7400327;19;20160;-79
2023/01/09 06:57:47;;;;;;;10.37;1.20;;;;;2.70;92638.00;;;;7399109;19;20145;-79
2023/01/09 07:00:22;;;;;;;7.87;1.00;;;;;2.80;92662.00;;;;7397177;19;20949;-79
2023/01/09 07:02:57;;;;;;;6.10;1.30;;;;;2.60;92652.00;;;;7397478;19;20128;-80
2023/01/09 07:05:38;;;;;;;4.83;1.60;;;;;2.70;92658.00;;;;7396126;19;20168;-79
2023/01/09 07:08:23;;;;;;;5.93;0.90;;;;;2.60;92655.00;;;;7397340;19;20228;-83
2023/01/09 07:10:57;;;;;;;4.57;1.10;;;;;2.70;92655.00;;;;7399076;19;20579;-79
2023/01/09 07:13:32;;;;;;;5.33;1.47;;;;;2.80;92670.00;;;;7396666;19;20566;-79
2023/01/09 07:16:04;;;;;;;8.23;1.13;;;;;2.80;92657.00;;;;7397838;19;20180;-79
2023/01/09 07:18:41;;;;;;;4.73;1.50;;;;;2.80;92658.00;;;;7399328;19;20149;-78
2023/01/09 07:21:08;;;;;;;5.17;0.93;;;;;2.80;92668.00;;;;7401012;19;20220;-78
2023/01/09 07:23:42;;;;;;;3.73;0.90;;;;;2.90;92652.00;;;;7399849;19;20128;-80
2023/01/09 07:26:10;;;;;;;3.40;1.10;;;;;2.80;92650.00;;;;7397340;19;20591;-81
2023/01/09 07:28:45;;;;;;;5.93;1.20;;;;;2.80;92660.00;;;;7401562;19;20464;-81
2023/01/09 07:31:16;;;;;;;4.90;1.23;;;;;2.80;92662.00;;;;7402441;19;20129;-80
2023/01/09 07:33:49;;;;;;;7.73;1.27;;;;;2.60;92646.00;;;;7400540;19;20137;-80
2023/01/09 07:36:17;;;;;;;5.43;1.30;;;;;2.70;92657.00;;;;7395362;19;21185;-80
2023/01/09 07:38:53;;;;;;;3.40;1.53;;;;;2.80;92656.00;;;;7391835;19;20602;-80
2023/01/09 07:41:26;;;;;;;4.37;2.10;;;;;2.80;92654.00;;;;7400043;19;20630;-79
2023/01/09 07:43:55;;;;;;;8.53;1.43;;;;;2.90;92662.00;;;;7398427;19;20121;-81
2023/01/09 07:46:29;;;;;;;6.80;1.63;;;;;3.30;92668.00;;;;7398722;19;20151;-80
2023/01/09 07:48:57;;;;;;;2.67;1.10;;;;;3.40;92661.00;;;;7391142;19;20135;-79
2023/01/09 07:51:24;;;;;;;3.83;1.10;;;;;3.60;92661.00;;;;7398206;19;20137;-80
2023/01/09 07:53:58;;;;;;;4.57;0.90;;;;;3.70;92665.00;;;;7395885;19;20168;-80
2023/01/09 07:56:26;;;;;;;8.13;0.90;;;;;3.90;92663.00;;;;7398521;19;20159;-79
2023/01/09 07:59:01;;;;;;;5.03;0.93;;;;;3.80;92671.00;;;;7393261;19;20159;-80
2023/01/09 08:01:28;;;;;;;6.03;0.80;;;;;3.80;92668.00;;;;7398296;19;20491;-81
2023/01/09 08:04:04;;;;;;;7.70;1.40;;;;;3.80;92688.00;;;;7400713;19;20164;-80
2023/01/09 08:06:45;;;;;;;5.30;1.13;;;;;3.60;92686.00;;;;7397260;19;20165;-80
2023/01/09 08:09:19;;;;;;;8.43;1.20;;;;;3.90;92684.00;;;;7399712;19;20133;-80
2023/01/09 08:11:47;;;;;;;9.10;1.37;;;;;3.80;92686.00;;;;7397913;19;20208;-80
2023/01/09 08:14:23;;;;;;;3.40;0.83;;;;;3.70;92686.00;;;;7400813;19;20489;-80
2023/01/09 08:16:57;;;;;;;4.13;0.97;;;;;3.60;92680.00;;;;7398839;19;20170;-80
2023/01/09 08:19:31;;;;;;;2.80;0.93;;;;;3.70;92688.00;;;;7396440;19;20618;-81
2023/01/09 08:22:00;;;;;;;1.83;0.63;;;;;3.70;92685.00;;;;7397247;19;20149;-81
2023/01/09 08:24:35;;;;;;;4.90;1.10;;;;;3.90;92688.00;;;;7401870;19;20147;-82
2023/01/09 08:27:06;;;;;;;2.97;0.90;;;;;3.90;92682.00;;;;7405068;19;20160;-81
2023/01/09 08:29:43;;;;;;;2.90;0.80;;;;;3.90;92686.00;;;;7407937;19;20157;-81
2023/01/09 08:32:17;;;;;;;4.30;0.80;;;;;3.90;92696.00;;;;7401365;19;20139;-80
2023/01/09 08:34:58;;;;;;;2.63;0.73;;;;;4.10;92714.00;;;;7403193;19;20614;-80
2023/01/09 08:37:33;;;;;;;2.77;1.00;;;;;4.30;92701.00;;;;7397185;19;20136;-80
2023/01/09 08:40:07;;;;;;;1.97;0.80;;;;;4.20;92696.00;;;;7400147;19;20620;-80
2023/01/09 08:48:23;;;;;;;1.70;0.90;;;;;4.50;92698.00;;;;7397979;19;20148;-80
2023/01/09 08:50:57;;;;;;;2.20;0.50;;;;;4.60;92690.00;;;;7397666;19;20457;-81
2023/01/09 08:53:30;;;;;;;1.53;0.53;;;;;5.00;92692.00;;;;7395402;19;20491;-80
2023/01/09 08:56:05;;;;;;;2.93;1.37;;;;;5.40;92685.00;;;;7398351;19;20149;-81
2023/01/09 08:58:34;;;;;;;5.93;0.70;;;;;6.20;92698.00;;;;7397597;19;20164;-81
2023/01/09 09:01:08;;;;;;;5.40;0.63;;;;;5.90;92696.00;;;;7393035;19;20139;-82
2023/01/09 09:03:43;;;;;;;3.77;0.80;;;;;6.20;92699.00;;;;7399074;19;20618;-80
2023/01/09 09:06:25;;;;;;;1.13;0.50;;;;;5.90;92689.00;;;;7397122;19;20200;-82
2023/01/09 09:08:52;;;;;;;2.23;0.73;;;;;6.20;92692.00;;;;7399988;19;20153;-80
2023/01/09 09:11:26;;;;;;;1.10;0.60;;;;;6.40;92690.00;;;;7399597;19;20156;-81
2023/01/09 09:13:53;;;;;;;2.97;0.83;;;;;7.20;92685.00;;;;7398622;19;20490;-80
2023/01/09 09:16:27;;;;;;;1.37;0.60;;;;;7.50;92678.00;;;;7398957;19;20136;-80
2023/01/09 09:18:55;;;;;;;1.47;0.60;;;;;7.20;92684.00;;;;7398188;19;20137;-82
2023/01/09 09:21:29;;;;;;;2.57;0.67;;;;;7.60;92682.00;;;;7394819;19;20171;-81
2023/01/09 09:23:59;;;;;;;3.13;0.63;;;;;6.70;92697.00;;;;7398709;19;20145;-83
2023/01/09 09:26:34;;;;;;;5.00;0.70;;;;;6.10;92695.00;;;;7396497;19;20159;-82
2023/01/09 09:29:11;;;;;;;4.30;0.77;;;;;5.80;92709.00;;;;7403327;19;20651;-84
2023/01/09 09:31:45;;;;;;;3.10;0.70;;;;;5.50;92710.00;;;;7405883;19;20332;-83
2023/01/09 09:34:17;;;;;;;1.83;0.60;;;;;5.50;92719.00;;;;7406785;19;20627;-83
2023/01/09 09:36:51;;;;;;;3.73;0.80;;;;;5.60;92720.00;;;;7401464;19;20158;-81
2023/01/09 09:39:19;;;;;;;3.10;0.60;;;;;5.40;92735.00;;;;7401751;19;20153;-81
2023/01/09 09:45:36;;;;;;;1.97;0.70;;;;;5.40;92722.00;;;;7401571;19;20640;-81
2023/01/09 09:48:54;;;;;;;1.00;0.30;;;;;5.40;92740.00;;;;7400716;19;20192;-81
2023/01/09 09:52:08;;;;;;;2.00;0.50;;;;;5.30;92738.00;;;;7396466;19;20133;-81
2023/01/09 09:54:49;;;;;;;2.13;0.50;;;;;5.00;92734.00;;;;7394091;19;20186;-80
2023/01/09 09:57:31;;;;;;;1.60;0.70;;;;;5.10;92732.00;;;;7399130;19;20153;-80
2023/01/09 09:59:59;;;;;;;1.47;0.60;;;;;5.20;92740.00;;;;7397092;19;20665;-81
2023/01/09 10:03:05;;;;;;;1.67;0.30;;;;;5.00;92737.00;;;;7401404;19;20136;-81
2023/01/09 10:05:47;;;;;;;1.67;0.50;;;;;5.00;92738.00;;;;7396667;19;20156;-81
2023/01/09 10:08:37;;;;;;;2.47;0.63;;;;;5.20;92739.00;;;;7399994;19;20136;-80
2023/01/09 10:11:10;;;;;;;2.43;0.60;;;;;5.10;92731.00;;;;7397007;19;20163;-80
2023/01/09 10:14:03;;;;;;;4.00;1.10;;;;;5.30;92727.00;;;;7397121;19;20220;-80
2023/01/09 10:16:56;;;;;;;3.67;0.93;;;;;5.10;92736.00;;;;7399425;19;20163;-80
2023/01/09 10:19:55;;;;;;;1.90;0.60;;;;;5.40;92727.00;;;;7398532;19;20161;-80
2023/01/09 10:22:59;;;;;;;2.23;0.63;;;;;5.60;92733.00;;;;7398032;19;20145;-79
2023/01/09 10:26:04;;;;;;;2.50;0.67;;;;;5.60;92728.00;;;;7394957;19;20602;-80
2023/01/09 10:29:28;;;;;;;1.00;0.50;;;;;5.40;92718.00;;;;7398774;19;20161;-81
2023/01/09 10:32:14;;;;;;;0.83;0.20;;;;;5.90;92709.00;;;;7397391;19;20153;-80
2023/01/09 10:35:13;;;;;;;5.10;1.00;;;;;7.40;92689.00;;;;7399942;19;20156;-80
2023/01/09 10:37:44;;;;;;;3.43;0.70;;;;;7.00;92705.00;;;;7399025;19;20145;-82
2023/01/09 10:40:27;;;;;;;1.33;0.67;;;;;6.70;92701.00;;;;7397047;19;20156;-80
2023/01/09 10:43:27;;;;;;;2.27;0.60;;;;;6.10;92696.00;;;;7397005;19;20529;-81
2023/01/09 10:46:06;;;;;;;1.73;0.40;;;;;5.70;92714.00;;;;7398751;19;20226;-80
2023/01/09 10:48:49;;;;;;;1.43;0.50;;;;;5.60;92705.00;;;;7398353;19;20484;-81
2023/01/09 10:51:42;;;;;;;1.57;0.80;;;;;5.80;92697.00;;;;7396293;19;20156;-82
2023/01/09 10:54:20;;;;;;;3.73;0.70;;;;;6.00;92701.00;;;;7395430;19;20188;-79
2023/01/09 10:56:59;;;;;;;5.17;0.93;;;;;6.00;92689.00;;;;7396997;19;20163;-80
2023/01/09 10:59:35;;;;;;;1.83;0.77;;;;;7.00;92704.00;;;;7396670;19;20156;-81
2023/01/09 11:02:03;;;;;;;2.97;0.90;;;;;7.30;92683.00;;;;7395778;19;20137;-80
2023/01/09 11:04:45;;;;;;;5.10;0.90;;;;;8.30;92689.00;;;;7396807;19;20113;-80
2023/01/09 11:07:27;;;;;;;1.37;0.53;;;;;8.20;92684.00;;;;7398577;19;20485;-79
2023/01/09 11:10:10;;;;;;;1.57;0.60;;;;;7.80;92676.00;;;;7396759;19;20204;-81
2023/01/09 11:12:39;;;;;;;0.73;0.40;;;;;8.60;92657.00;;;;7395193;19;20546;-80
2023/01/09 11:15:15;;;;;;;2.13;0.60;;;;;9.20;92648.00;;;;7396276;19;20132;-79
2023/01/09 11:17:51;;;;;;;1.85;0.60;;;;;10.50;92659.00;;;;7394717;19;20188;-79
2023/01/09 11:20:29;;;;;;;1.90;0.77;;;;;10.50;92652.00;;;;7395880;19;20143;-80
2023/01/09 11:23:03;;;;;;;2.40;0.70;;;;;8.90;92647.00;;;;7395094;19;20169;-79
2023/01/09 11:25:30;;;;;;;1.88;0.88;;;;;9.30;92647.00;;;;7394545;19;20146;-80
2023/01/09 11:28:07;;;;;;;1.73;0.52;;;;;9.80;92658.00;;;;7395669;19;20515;-79
2023/01/09 11:30:53;;;;;;;1.95;0.60;;;;;8.30;92665.00;;;;7392092;19;20503;-79
2023/01/09 11:33:29;;;;;;;3.57;0.70;;;;;7.50;92676.00;;;;7398106;19;20457;-78
2023/01/09 11:36:15;;;;;;;2.20;0.70;;;;;7.00;92672.00;;;;7397721;19;20493;-78
2023/01/09 11:38:52;;;;;;;1.27;0.70;;;;;8.00;92669.00;;;;7391175;19;20624;-78
2023/01/09 11:41:23;;;;;;;2.10;0.70;;;;;8.00;92679.00;;;;7391139;19;20454;-77
2023/01/09 11:43:59;;;;;;;2.03;0.90;;;;;7.60;92683.00;;;;7393580;19;20132;-77
2023/01/09 11:46:40;;;;;;;2.90;0.70;;;;;7.30;92689.00;;;;7393440;19;20141;-77
2023/01/09 11:49:14;;;;;;;3.00;0.60;;;;;6.70;92675.00;;;;7393573;19;20137;-77
2023/01/09 11:51:43;;;;;;;2.37;0.90;;;;;6.40;92674.00;;;;7390896;19;20198;-77
2023/01/09 11:54:34;;;;;;;0.53;0.53;;;;;6.00;92678.00;;;;7391176;19;20156;-77
2023/01/09 11:57:13;;;;;;;0.83;0.43;;;;;5.60;92690.00;;;;7391757;19;20129;-78
2023/01/09 11:59:40;;;;;;;3.67;1.00;;;;;5.10;92708.00;;;;7390064;19;20129;-80
2023/01/09 12:02:43;;;;;;;0.90;0.27;;;;;4.70;92687.00;;;;7396546;19;20136;-79
2023/01/09 12:05:33;;;;;;;1.50;0.60;;;;;5.00;92688.00;;;;7396993;19;20152;-79
2023/01/09 12:08:29;;;;;;;2.10;0.47;;;;;5.00;92696.00;;;;7401306;19;20159;-80
2023/01/09 12:11:30;;;;;;;1.73;0.57;;;;;5.60;92689.00;;;;7402393;19;20137;-81
2023/01/09 12:14:42;;;;;;;2.10;0.40;;;;;5.90;92689.00;;;;7400934;19;20156;-80
2023/01/09 12:17:15;;;;;;;1.60;0.33;;;;;5.80;92692.00;;;;7401085;19;20137;-81
2023/01/09 12:20:23;;;;;;;3.43;0.60;;;;;6.20;92701.00;;;;7402386;19;20140;-82
2023/01/09 12:23:22;;;;;;;0.40;0.30;;;;;5.40;92711.00;;;;7404197;19;20152;-81
2023/01/09 12:25:56;;;;;;;0.70;0.60;;;;;5.10;92719.00;;;;7404351;19;20171;-80
2023/01/09 12:29:15;;;;;;;0.60;0.23;;;;;5.10;92715.00;;;;7402203;19;20135;-81
2023/01/09 12:32:38;;;;;;;1.07;0.40;;;;;5.30;92720.00;;;;7397629;19;20734;-80
2023/01/09 12:35:37;;;;;;;1.30;0.80;;;;;5.30;92718.00;;;;7396187;19;20185;-81
2023/01/09 12:38:30;;;;;;;1.87;0.60;;;;;5.10;92717.00;;;;7399865;19;20136;-81
2023/01/09 12:41:15;;;;;;;2.27;0.60;;;;;5.10;92711.00;;;;7397319;19;20152;-80
2023/01/09 12:44:15;;;;;;;1.70;0.57;;;;;5.20;92715.00;;;;7388994;19;20181;-81
2023/01/09 12:47:17;;;;;;;0.90;0.50;;;;;5.20;92715.00;;;;7398904;19;20149;-80
2023/01/09 12:50:15;;;;;;;2.40;0.60;;;;;5.30;92710.00;;;;7396383;19;20145;-80
2023/01/09 12:53:13;;;;;;;2.73;0.57;;;;;5.00;92720.00;;;;7397601;19;20145;-80
2023/01/09 12:55:58;;;;;;;1.13;0.43;;;;;5.20;92739.00;;;;7397974;19;20627;-80
2023/01/09 12:58:54;;;;;;;1.93;0.50;;;;;5.00;92724.00;;;;7399043;19;20544;-80
2023/01/09 13:01:33;;;;;;;3.17;0.60;;;;;4.80;92730.00;;;;7394338;19;20196;-80
2023/01/09 13:04:23;;;;;;;3.17;0.50;;;;;4.40;92736.00;;;;7396383;19;20226;-79
2023/01/09 13:07:05;;;;;;;1.93;0.67;;;;;4.50;92724.00;;;;7396088;19;20148;-79
2023/01/09 13:09:55;;;;;;;2.77;0.60;;;;;4.60;92731.00;;;;7396099;19;20767;-80
2023/01/09 13:12:34;;;;;;;1.20;0.60;;;;;4.50;92736.00;;;;7396003;19;20599;-78
2023/01/09 13:15:06;;;;;;;2.63;0.40;;;;;4.30;92731.00;;;;7394484;19;20160;-79
2023/01/09 13:17:44;;;;;;;1.67;0.50;;;;;4.00;92754.00;;;;7392651;19;20154;-80
2023/01/09 13:20:42;;;;;;;0.87;0.50;;;;;4.00;92743.00;;;;7397577;19;20529;-81
2023/01/09 13:23:20;;;;;;;1.60;0.27;;;;;3.50;92723.00;;;;7396476;19;20161;-79
2023/01/09 13:26:16;;;;;;;0.63;0.20;;;;;3.50;92722.00;;;;7396763;19;20167;-80
2023/01/09 13:29:18;;;;;;;1.13;0.30;;;;;3.50;92731.00;;;;7396710;19;20162;-80
2023/01/09 13:32:18;;;;;;;1.57;0.40;;;;;3.50;92720.00;;;;7396047;19;20156;-83
2023/01/09 13:34:53;;;;;;;0.50;0.20;;;;;4.20;92723.00;;;;7396710;19;20230;-81